Map

Track Data

SID SEASON NUMBER BASIN SUBBASIN NAME ISO_TIME NATURE LAT LON WMO_WIND WMO_PRES WMO_AGENCY TRACK_TYPE DIST2LAND LANDFALL IFLAG USA_AGENCY USA_ATCF_ID USA_LAT USA_LON USA_RECORD USA_STATUS USA_WIND USA_PRES USA_SSHS USA_R34_NE USA_R34_SE USA_R34_SW USA_R34_NW USA_R50_NE USA_R50_SE USA_R50_SW USA_R50_NW USA_R64_NE USA_R64_SE USA_R64_SW USA_R64_NW USA_POCI USA_ROCI USA_RMW USA_EYE TOKYO_LAT TOKYO_LON TOKYO_GRADE TOKYO_WIND TOKYO_PRES TOKYO_R50_DIR TOKYO_R50_LONG TOKYO_R50_SHORT TOKYO_R30_DIR TOKYO_R30_LONG TOKYO_R30_SHORT TOKYO_LAND CMA_LAT CMA_LON CMA_CAT CMA_WIND CMA_PRES HKO_LAT HKO_LON HKO_CAT HKO_WIND HKO_PRES NEWDELHI_LAT NEWDELHI_LON NEWDELHI_GRADE NEWDELHI_WIND NEWDELHI_PRES NEWDELHI_CI NEWDELHI_DP NEWDELHI_POCI REUNION_LAT REUNION_LON REUNION_TYPE REUNION_WIND REUNION_PRES REUNION_TNUM REUNION_CI REUNION_RMW REUNION_R34_NE REUNION_R34_SE REUNION_R34_SW REUNION_R34_NW REUNION_R50_NE REUNION_R50_SE REUNION_R50_SW REUNION_R50_NW REUNION_R64_NE REUNION_R64_SE REUNION_R64_SW REUNION_R64_NW BOM_LAT BOM_LON BOM_TYPE BOM_WIND BOM_PRES BOM_TNUM BOM_CI BOM_RMW BOM_R34_NE BOM_R34_SE BOM_R34_SW BOM_R34_NW BOM_R50_NE BOM_R50_SE BOM_R50_SW BOM_R50_NW BOM_R64_NE BOM_R64_SE BOM_R64_SW BOM_R64_NW BOM_ROCI BOM_POCI BOM_EYE BOM_POS_METHOD BOM_PRES_METHOD NADI_LAT NADI_LON NADI_CAT NADI_WIND NADI_PRES WELLINGTON_LAT WELLINGTON_LON WELLINGTON_WIND WELLINGTON_PRES DS824_LAT DS824_LON DS824_STAGE DS824_WIND DS824_PRES TD9636_LAT TD9636_LON TD9636_STAGE TD9636_WIND TD9636_PRES TD9635_LAT TD9635_LON TD9635_WIND TD9635_PRES TD9635_ROCI NEUMANN_LAT NEUMANN_LON NEUMANN_CLASS NEUMANN_WIND NEUMANN_PRES MLC_LAT MLC_LON MLC_CLASS MLC_WIND MLC_PRES USA_GUST BOM_GUST BOM_GUST_PER REUNION_GUST REUNION_GUST_PER USA_SEAHGT USA_SEARAD_NE USA_SEARAD_SE USA_SEARAD_SW USA_SEARAD_NW STORM_SPEED STORM_DIR
1932001S13044 1932 1 SI MM NOT_NAMED 1932-01-01 06:00:00 NR -12.6000 43.7000 reunion main 336 326 _____O________ -1 -12.6000 43.7000 99 9.90000 2 328
1932001S13044 1932 1 SI MM NOT_NAMED 1932-01-01 09:00:00 NR -12.4995 43.6257 main 326 326 _____P________ -1 -12.4995 43.6257 99 2 324
1932001S13044 1932 1 SI MM NOT_NAMED 1932-01-01 12:00:00 NR -12.4194 43.5668 main 326 315 _____P________ -1 -12.4194 43.5668 99 1 324
1932001S13044 1932 1 SI MM NOT_NAMED 1932-01-01 15:00:00 NR -12.3799 43.5387 main 315 315 _____P________ -1 -12.3799 43.5387 99 0 0
1932001S13044 1932 1 SI MM NOT_NAMED 1932-01-01 18:00:00 NR -12.4012 43.5566 main 326 326 _____P________ -1 -12.4012 43.5566 99 2 141
1932001S13044 1932 1 SI MM NOT_NAMED 1932-01-01 21:00:00 NR -12.5035 43.6359 main 326 326 _____P________ -1 -12.5035 43.6359 99 4 143
1932001S13044 1932 1 SI MM NOT_NAMED 1932-01-02 00:00:00 NR -12.7072 43.7922 main 347 347 _____P________ -1 -12.7072 43.7922 99 7 143
1932001S13044 1932 1 SI MM NOT_NAMED 1932-01-02 03:00:00 NR -13.0326 44.0414 main 356 289 _____P________ -1 -13.0326 44.0414 99 10 143
1932001S13044 1932 1 SI MM NOT_NAMED 1932-01-02 06:00:00 NR -13.5000 44.4000 reunion main 289 215 _____O________ -1 -13.5000 44.4000 99 9.90000 14 143
1932001S13044 1932 1 SI MM NOT_NAMED 1932-01-02 09:00:00 NR -14.1194 44.8775 main 213 124 _____P________ -1 -14.1194 44.8775 99 17 143
1932001S13044 1932 1 SI MM NOT_NAMED 1932-01-02 12:00:00 NR -14.8597 45.4524 main 112 22 _____P________ -1 -14.8597 45.4524 99 20 143
1932001S13044 1932 1 SI MM NOT_NAMED 1932-01-02 15:00:00 NR -15.6789 46.0947 main 11 0 _____P________ -1 -15.6789 46.0947 99 21 143
1932001S13044 1932 1 SI MM NOT_NAMED 1932-01-02 18:00:00 NR -16.5352 46.7736 main 0 0 _____P________ -1 -16.5352 46.7736 99 22 143
1932001S13044 1932 1 SI MM NOT_NAMED 1932-01-02 21:00:00 NR -17.3865 47.4572 main 0 0 _____P________ -1 -17.3865 47.4572 99 21 142
1932001S13044 1932 1 SI MM NOT_NAMED 1932-01-03 00:00:00 NR -18.1915 48.1124 main 0 0 _____P________ -1 -18.1915 48.1124 99 19 142
1932001S13044 1932 1 SI MM NOT_NAMED 1932-01-03 03:00:00 NR -18.9093 48.7049 main 0 0 _____P________ -1 -18.9093 48.7049 99 17 142
1932001S13044 1932 1 SI MM NOT_NAMED 1932-01-03 06:00:00 NR -19.5000 49.2000 reunion main 33 33 _____O________ -1 -19.5000 49.2000 99 9.90000 13 141
1932001S13044 1932 1 SI MM NOT_NAMED 1932-01-03 09:00:00 NR -19.9346 49.5707 main 83 83 _____P________ -1 -19.9346 49.5707 99 9 141
1932001S13044 1932 1 SI MM NOT_NAMED 1932-01-03 12:00:00 NR -20.2246 49.8240 main 106 106 _____P________ -1 -20.2246 49.8240 99 6 140
1932001S13044 1932 1 SI MM NOT_NAMED 1932-01-03 15:00:00 NR -20.3914 49.9758 main 132 132 _____P________ -1 -20.3914 49.9758 99 3 138
1932001S13044 1932 1 SI MM NOT_NAMED 1932-01-03 18:00:00 NR -20.4558 50.0428 main 137 132 _____P________ -1 -20.4558 50.0428 99 1 134
1932001S13044 1932 1 SI MM NOT_NAMED 1932-01-03 21:00:00 NR -20.4385 50.0416 main 132 132 _____P________ -1 -20.4385 50.0416 99 1 329
1932001S13044 1932 1 SI MM NOT_NAMED 1932-01-04 00:00:00 NR -20.3599 49.9894 main 132 117 _____P________ -1 -20.3599 49.9894 99 2 327
1932001S13044 1932 1 SI MM NOT_NAMED 1932-01-04 03:00:00 NR -20.2403 49.9031 main 117 105 _____P________ -1 -20.2403 49.9031 99 3 326
1932001S13044 1932 1 SI MM NOT_NAMED 1932-01-04 06:00:00 NR -20.1000 49.8000 reunion main 105 _____O________ -1 -20.1000 49.8000 99 9.90000 3 324

About IBTrACS Database

This database is a web-friendly format of International Best Track Archive for Climate Stewardship (IBTrACS), a global best track data archive curated by NOAA dating back to 1842.

Updated: 2021-10-19